This is the latest recevied weather packets stored in our database for station/object G4GVZ-1. If no packets are shown the sender has not sent any weather packets the latest 10 day(s).
| Time | Temp. | Humidity | Pressure | Rain* | Wind** | Luminosity | Snow |
|---|---|---|---|---|---|---|---|
| 1777842949 | 12.78° C | 92% | 1010.5 hPa | 2.29 mm | - | - | - |
| 1777842049 | 13.33° C | 90% | 1010.4 hPa | 0.51 mm | - | - | - |
| 1777841151 | 13.33° C | 87% | 1010.2 hPa | 0 mm | - | - | - |
| 1777840252 | 13.33° C | 87% | 1010.1 hPa | 0 mm | - | - | - |
| 1777839351 | 13.33° C | 87% | 1009.9 hPa | 0 mm | - | - | - |
| 1777838450 | 13.89° C | 84% | 1009.6 hPa | 0 mm | - | - | - |
| 1777837550 | 14.44° C | 82% | 1009.4 hPa | 0 mm | - | - | - |
| 1777836650 | 15° C | 81% | 1009.2 hPa | 0 mm | - | - | - |
| 1777835750 | 15.56° C | 80% | 1009 hPa | 0 mm | - | - | - |
| 1777834850 | 15.56° C | 79% | 1009 hPa | 0 mm | - | - | - |
| 1777833952 | 15.56° C | 79% | 1008.8 hPa | 0 mm | - | - | - |
| 1777833052 | 16.11° C | 76% | 1008.5 hPa | 0 mm | - | - | - |
| 1777832152 | 16.67° C | 74% | 1008.5 hPa | 0 mm | - | - | - |
| 1777831252 | 16.67° C | 70% | 1008.4 hPa | 0 mm | - | - | - |
| 1777830351 | 16.67° C | 69% | 1008.4 hPa | 0 mm | - | - | - |
| 1777829451 | 16.11° C | 70% | 1008.3 hPa | 0 mm | - | - | - |
| 1777828553 | 16.67° C | 72% | 1008.3 hPa | 0 mm | - | - | - |
| 1777827653 | 17.22° C | 69% | 1008.3 hPa | 0 mm | - | - | - |
| 1777826753 | 17.78° C | 65% | 1008.2 hPa | 0 mm | - | - | - |
| 1777825852 | 17.78° C | 64% | 1008 hPa | 0 mm | - | - | - |
| 1777824952 | 18.33° C | 62% | 1008.3 hPa | 0 mm | - | - | - |
| 1777824052 | 18.89° C | 61% | 1008.3 hPa | 0 mm | - | - | - |
| 1777823152 | 19.44° C | 60% | 1008.3 hPa | 0 mm | - | - | - |
| 1777822252 | 18.89° C | 62% | 1008.2 hPa | 0 mm | - | - | - |
| 1777821351 | 18.33° C | 64% | 1008.3 hPa | 0 mm | - | - | - |
* Rain latest hour (hover to see other rain measurements)
** Current wind speed in m/s (hover to see current wind gust speed)